Time;durP1;ratioP1;P1;durP2;ratioP2;P2;SDS_P1;SDS_P2;PMS_P1;PMS_P2;Temp;Humidity;BMP_temperature;BMP_pressure;BME280_temperature;BME280_humidity;BME280_pressure;Samples;Min_cycle;Max_cycle;Signal;HPM_P1;HPM_P2
2023/09/28 00:01:18;;;;;;;12.70;11.23;;;17.30;89.50;;;;;;5073432;28;20054;-53
2023/09/28 00:03:47;;;;;;;12.05;10.95;;;17.30;89.50;;;;;;5055507;28;20029;-52
2023/09/28 00:06:14;;;;;;;12.60;11.50;;;17.30;89.40;;;;;;5073672;28;20036;-52
2023/09/28 00:08:41;;;;;;;11.75;10.68;;;17.30;89.30;;;;;;5073373;28;20020;-53
2023/09/28 00:11:09;;;;;;;11.88;10.68;;;17.20;89.30;;;;;;5073220;28;20442;-51
2023/09/28 00:13:37;;;;;;;12.48;11.30;;;17.20;89.30;;;;;;5073228;28;20029;-51
2023/09/28 00:16:04;;;;;;;12.80;11.23;;;17.30;89.30;;;;;;5055228;28;20028;-53
2023/09/28 00:18:33;;;;;;;11.82;10.60;;;17.20;89.20;;;;;;5071967;28;20115;-51
2023/09/28 00:21:01;;;;;;;12.02;10.82;;;17.20;89.00;;;;;;5072991;28;20028;-50
2023/09/28 00:23:28;;;;;;;11.85;10.63;;;17.30;89.00;;;;;;5072978;28;20032;-52
2023/09/28 00:25:57;;;;;;;12.05;10.88;;;17.30;88.90;;;;;;5072967;28;20506;-53
2023/09/28 00:28:25;;;;;;;12.57;11.48;;;17.30;88.90;;;;;;5072580;28;20043;-50
2023/09/28 00:30:52;;;;;;;11.43;10.38;;;17.30;88.90;;;;;;5072720;28;20055;-51
2023/09/28 00:33:19;;;;;;;14.35;12.32;;;17.30;88.80;;;;;;5071638;28;20107;-52
2023/09/28 00:35:45;;;;;;;13.05;11.75;;;17.20;88.80;;;;;;5071824;28;20131;-50
2023/09/28 00:38:10;;;;;;;13.98;12.48;;;17.30;88.70;;;;;;5073299;28;20024;-48
2023/09/28 00:40:45;;;;;;;15.48;11.65;;;17.30;88.80;;;;;;5072764;28;20584;-48
2023/09/28 00:43:12;;;;;;;14.88;12.88;;;17.30;88.80;;;;;;5072392;28;20052;-51
2023/09/28 00:45:39;;;;;;;14.52;13.18;;;17.30;88.80;;;;;;5072971;28;20058;-52
2023/09/28 00:48:09;;;;;;;15.57;14.05;;;17.30;88.90;;;;;;5072690;28;20626;-51
2023/09/28 00:50:37;;;;;;;13.25;11.85;;;17.20;89.00;;;;;;5056226;28;20037;-54
2023/09/28 00:53:07;;;;;;;13.85;12.38;;;17.20;89.10;;;;;;5055621;28;20074;-51
2023/09/28 00:55:36;;;;;;;15.07;13.38;;;17.20;89.20;;;;;;5072547;28;20504;-54
2023/09/28 00:58:12;;;;;;;14.60;13.30;;;17.20;89.20;;;;;;5055158;28;20124;-50
2023/09/28 01:00:40;;;;;;;14.27;12.98;;;17.10;89.30;;;;;;5071529;28;20473;-54
2023/09/28 01:03:08;;;;;;;14.02;12.63;;;17.10;89.30;;;;;;5072782;28;20028;-50
2023/09/28 01:05:40;;;;;;;14.40;12.93;;;17.10;89.30;;;;;;5055165;28;20405;-55
2023/09/28 01:08:24;;;;;;;14.00;12.68;;;17.10;89.20;;;;;;5072566;28;20027;-51
2023/09/28 01:10:50;;;;;;;14.10;12.70;;;17.10;89.10;;;;;;5072695;28;20029;-49
2023/09/28 01:13:20;;;;;;;14.20;12.90;;;17.10;89.10;;;;;;5072655;28;20067;-52
2023/09/28 01:15:53;;;;;;;13.82;12.38;;;17.10;89.10;;;;;;5072312;28;20079;-49
2023/09/28 01:18:22;;;;;;;14.18;12.73;;;17.10;89.10;;;;;;5055381;28;20119;-50
2023/09/28 01:20:52;;;;;;;13.65;12.30;;;17.10;89.10;;;;;;5055307;28;20071;-51
2023/09/28 01:23:23;;;;;;;13.73;12.52;;;17.10;89.00;;;;;;5071761;28;20420;-50
2023/09/28 01:25:56;;;;;;;14.65;13.25;;;17.10;88.90;;;;;;5072556;28;20024;-50
2023/09/28 01:28:24;;;;;;;12.90;11.65;;;17.10;88.80;;;;;;5072161;28;20085;-53
2023/09/28 01:30:53;;;;;;;13.45;12.15;;;17.20;88.50;;;;;;5072925;28;20535;-50
2023/09/28 01:33:19;;;;;;;12.70;11.60;;;17.30;88.30;;;;;;5072274;28;20473;-50
2023/09/28 01:35:45;;;;;;;15.63;12.57;;;17.30;88.10;;;;;;5072262;28;20061;-49
2023/09/28 01:38:34;;;;;;;13.50;12.27;;;17.30;88.00;;;;;;5072453;28;20068;-50
2023/09/28 01:41:04;;;;;;;13.13;11.68;;;17.30;87.90;;;;;;5055375;28;20024;-50
2023/09/28 01:43:31;;;;;;;14.00;12.80;;;17.30;87.90;;;;;;5085235;28;20086;-49
2023/09/28 01:45:57;;;;;;;11.93;10.82;;;17.30;87.70;;;;;;5092209;28;20028;-53
2023/09/28 01:48:24;;;;;;;13.18;11.98;;;17.30;87.50;;;;;;5089710;28;20052;-50
2023/09/28 01:50:51;;;;;;;13.00;11.48;;;17.40;87.40;;;;;;5072183;28;20032;-50
2023/09/28 01:53:19;;;;;;;11.82;10.73;;;17.40;87.30;;;;;;5072026;28;20441;-49
2023/09/28 01:55:47;;;;;;;11.85;10.63;;;17.40;87.10;;;;;;5071985;28;20032;-52
2023/09/28 01:58:16;;;;;;;13.95;12.05;;;17.40;87.20;;;;;;5038290;28;20036;-50
2023/09/28 02:00:46;;;;;;;12.23;10.93;;;17.40;87.20;;;;;;5072091;28;20047;-50
2023/09/28 02:03:14;;;;;;;11.88;10.73;;;17.40;87.10;;;;;;5054899;28;20029;-48
2023/09/28 02:05:41;;;;;;;11.90;10.70;;;17.40;87.00;;;;;;5072580;28;20033;-50
2023/09/28 02:08:10;;;;;;;11.38;10.27;;;17.40;87.00;;;;;;5054898;28;20063;-52
2023/09/28 02:10:37;;;;;;;12.05;10.95;;;17.40;87.00;;;;;;5075479;28;20100;-51
2023/09/28 02:13:05;;;;;;;12.45;11.25;;;17.40;86.90;;;;;;5075229;28;20032;-49
2023/09/28 02:15:37;;;;;;;11.77;10.75;;;17.40;87.00;;;;;;5076165;28;20453;-49
2023/09/28 02:18:06;;;;;;;11.27;10.18;;;17.40;87.00;;;;;;5075310;28;20032;-51
2023/09/28 02:20:34;;;;;;;11.82;10.18;;;17.30;87.10;;;;;;5076005;28;20029;-55
2023/09/28 02:23:02;;;;;;;12.48;10.75;;;17.40;87.20;;;;;;5075114;28;20074;-53
2023/09/28 02:25:29;;;;;;;11.27;10.25;;;17.40;87.00;;;;;;5075337;28;20036;-50
2023/09/28 02:27:55;;;;;;;11.68;10.02;;;17.40;87.00;;;;;;5075737;28;20043;-50
2023/09/28 02:30:23;;;;;;;12.13;10.70;;;17.40;86.90;;;;;;5075044;28;20024;-51
2023/09/28 02:32:55;;;;;;;14.07;9.73;;;17.40;86.80;;;;;;5075256;28;20056;-52
2023/09/28 02:35:22;;;;;;;13.70;10.95;;;17.40;86.70;;;;;;5062821;28;20323;-51
2023/09/28 02:37:51;;;;;;;12.23;10.18;;;17.40;86.70;;;;;;5095352;28;20028;-52
2023/09/28 02:40:19;;;;;;;12.13;10.95;;;17.50;86.30;;;;;;5093619;28;20028;-53
2023/09/28 02:42:50;;;;;;;11.63;10.43;;;17.40;86.20;;;;;;5074315;28;20040;-51
2023/09/28 02:45:17;;;;;;;12.55;11.25;;;17.50;86.20;;;;;;5074486;28;20043;-52
2023/09/28 02:47:50;;;;;;;10.65;9.65;;;17.50;86.10;;;;;;5074820;28;20477;-55
2023/09/28 02:50:18;;;;;;;9.50;8.70;;;17.50;85.90;;;;;;5074859;28;20169;-47
2023/09/28 02:52:47;;;;;;;11.73;10.13;;;17.50;86.00;;;;;;5074565;28;20035;-48
2023/09/28 02:55:13;;;;;;;10.60;9.60;;;17.50;86.10;;;;;;5074739;28;20039;-53
2023/09/28 02:57:41;;;;;;;11.00;9.55;;;17.50;86.10;;;;;;5073384;28;20044;-54
2023/09/28 03:00:32;;;;;;;13.32;10.60;;;17.50;85.90;;;;;;5075012;28;20030;-50
2023/09/28 03:03:09;;;;;;;10.02;9.02;;;17.50;85.90;;;;;;5093260;28;20541;-51
2023/09/28 03:05:38;;;;;;;14.05;10.45;;;17.40;86.00;;;;;;5094510;28;20016;-52
2023/09/28 03:08:11;;;;;;;12.05;9.45;;;17.40;85.90;;;;;;5094201;28;20019;-52
2023/09/28 03:10:39;;;;;;;10.77;9.68;;;17.50;85.90;;;;;;5073505;28;20033;-52
2023/09/28 03:13:07;;;;;;;10.38;9.40;;;17.50;85.70;;;;;;5074262;28;20166;-51
2023/09/28 03:15:35;;;;;;;11.23;10.00;;;17.50;85.70;;;;;;5073203;28;20033;-49
2023/09/28 03:18:03;;;;;;;10.75;9.73;;;17.50;85.70;;;;;;5056767;28;20036;-53
2023/09/28 03:20:35;;;;;;;10.48;9.38;;;17.50;85.80;;;;;;5073785;28;20157;-48
2023/09/28 03:23:02;;;;;;;10.30;8.90;;;17.50;85.80;;;;;;5074262;28;20032;-50
2023/09/28 03:25:30;;;;;;;12.48;10.85;;;17.40;85.80;;;;;;5074137;28;20029;-53
2023/09/28 03:28:03;;;;;;;10.82;9.73;;;17.40;85.70;;;;;;5074103;28;20028;-53
2023/09/28 03:30:30;;;;;;;11.10;10.05;;;17.40;85.80;;;;;;5073647;28;20037;-50
2023/09/28 03:33:00;;;;;;;11.00;9.55;;;17.40;85.90;;;;;;5073925;28;20032;-50
2023/09/28 03:35:26;;;;;;;11.10;9.98;;;17.40;86.10;;;;;;5073767;28;20128;-53
2023/09/28 03:37:54;;;;;;;11.43;10.40;;;17.40;86.20;;;;;;5073424;28;20052;-50
2023/09/28 03:40:22;;;;;;;11.20;10.07;;;17.40;86.20;;;;;;5055942;28;20032;-49
2023/09/28 03:42:55;;;;;;;10.43;9.35;;;17.30;86.20;;;;;;5071989;28;20037;-52
2023/09/28 03:45:22;;;;;;;10.40;9.05;;;17.30;86.30;;;;;;5074157;28;20338;-51
2023/09/28 03:47:55;;;;;;;10.63;9.57;;;17.30;86.30;;;;;;5073702;28;20606;-53
2023/09/28 03:50:22;;;;;;;10.57;9.65;;;17.20;86.40;;;;;;5063031;28;20089;-50
2023/09/28 03:52:50;;;;;;;11.38;9.43;;;17.20;86.50;;;;;;5093245;28;20024;-54
2023/09/28 03:55:21;;;;;;;12.48;10.95;;;17.20;86.60;;;;;;5092825;28;20054;-50
2023/09/28 03:57:48;;;;;;;10.73;9.65;;;17.10;86.80;;;;;;5093549;28;20043;-51
2023/09/28 04:00:17;;;;;;;11.40;10.30;;;17.10;86.80;;;;;;5080624;28;20115;-50
2023/09/28 04:02:48;;;;;;;11.82;10.65;;;17.10;86.80;;;;;;5072900;28;20089;-50
2023/09/28 04:05:17;;;;;;;10.88;9.77;;;17.00;87.00;;;;;;5073232;28;20086;-53
2023/09/28 04:07:43;;;;;;;12.65;9.18;;;17.00;87.10;;;;;;5070374;28;20074;-50
2023/09/28 04:10:13;;;;;;;10.50;9.50;;;16.90;87.20;;;;;;5093444;28;20068;-51
2023/09/28 04:12:43;;;;;;;12.30;11.18;;;16.90;87.40;;;;;;5092247;28;20391;-48
2023/09/28 04:15:09;;;;;;;10.88;9.77;;;16.90;87.60;;;;;;5069585;28;20035;-50
2023/09/28 04:17:36;;;;;;;11.48;10.40;;;16.90;87.60;;;;;;5073089;28;20115;-51
2023/09/28 04:20:12;;;;;;;12.02;10.93;;;16.90;87.70;;;;;;5073260;28;20029;-51
2023/09/28 04:22:38;;;;;;;12.07;10.95;;;16.90;87.90;;;;;;5056453;28;20618;-49
2023/09/28 04:25:07;;;;;;;12.50;11.20;;;16.80;87.90;;;;;;5038851;28;20464;-51
2023/09/28 04:27:41;;;;;;;11.40;10.38;;;16.80;87.90;;;;;;5073315;28;20327;-50
2023/09/28 04:30:10;;;;;;;11.80;10.45;;;16.80;87.90;;;;;;5055175;28;20028;-48
2023/09/28 04:32:39;;;;;;;11.88;10.55;;;16.80;87.90;;;;;;5072076;28;20055;-53
2023/09/28 04:35:10;;;;;;;11.23;10.03;;;16.70;88.10;;;;;;5072549;28;20032;-51
2023/09/28 04:37:37;;;;;;;12.25;11.15;;;16.70;88.10;;;;;;5072918;28;20028;-50
2023/09/28 04:40:10;;;;;;;12.30;11.00;;;16.70;88.20;;;;;;5072739;28;20017;-52
2023/09/28 04:42:36;;;;;;;12.60;10.68;;;16.70;88.20;;;;;;5072291;28;20079;-51
2023/09/28 04:45:05;;;;;;;12.18;10.98;;;16.60;88.30;;;;;;5067351;28;20029;-49
2023/09/28 04:47:36;;;;;;;15.05;11.45;;;16.60;88.40;;;;;;5072793;28;20180;-47
2023/09/28 04:50:03;;;;;;;11.98;10.98;;;16.50;88.50;;;;;;5072930;28;20086;-51
2023/09/28 04:52:30;;;;;;;11.98;10.77;;;16.50;88.60;;;;;;5055164;28;20036;-48
2023/09/28 04:54:57;;;;;;;12.50;11.25;;;16.50;88.60;;;;;;5073062;28;20036;-48
2023/09/28 04:57:25;;;;;;;13.00;11.20;;;16.40;88.60;;;;;;5055080;28;20078;-51
2023/09/28 04:59:53;;;;;;;12.57;11.25;;;16.40;88.80;;;;;;5072552;28;20035;-50
2023/09/28 05:02:21;;;;;;;11.70;10.50;;;16.40;88.90;;;;;;5072493;28;20037;-48
2023/09/28 05:04:48;;;;;;;11.57;10.40;;;16.40;89.00;;;;;;5072809;28;20083;-52
2023/09/28 05:07:14;;;;;;;11.02;9.88;;;16.40;89.00;;;;;;5072413;28;20024;-49
2023/09/28 05:09:42;;;;;;;11.95;10.73;;;16.30;89.10;;;;;;5072328;28;20020;-51
2023/09/28 05:12:09;;;;;;;11.63;10.15;;;16.30;89.10;;;;;;5073227;28;20129;-49
2023/09/28 05:14:36;;;;;;;12.95;10.13;;;16.30;89.10;;;;;;5072386;28;20036;-48
2023/09/28 05:17:06;;;;;;;10.98;9.93;;;16.20;89.20;;;;;;5072314;28;20032;-50
2023/09/28 05:19:33;;;;;;;10.88;9.77;;;16.30;89.30;;;;;;5072485;28;20446;-53
2023/09/28 05:22:01;;;;;;;11.23;10.23;;;16.20;89.30;;;;;;5072785;28;20158;-53
2023/09/28 05:24:32;;;;;;;10.30;9.30;;;16.20;89.30;;;;;;5072596;28;20753;-52
2023/09/28 05:26:58;;;;;;;11.52;10.43;;;16.20;89.30;;;;;;5072135;28;20154;-50
2023/09/28 05:29:24;;;;;;;14.68;10.68;;;16.20;89.30;;;;;;5054414;28;20103;-47
2023/09/28 05:31:53;;;;;;;11.80;10.45;;;16.20;89.40;;;;;;5072107;28;20111;-49
2023/09/28 05:34:23;;;;;;;11.50;10.13;;;16.20;89.40;;;;;;5072279;28;20718;-48
2023/09/28 05:36:52;;;;;;;11.40;10.23;;;16.20;89.40;;;;;;5054619;28;20037;-50
2023/09/28 05:39:21;;;;;;;15.45;10.45;;;16.20;89.50;;;;;;5072156;28;20407;-50
2023/09/28 05:41:51;;;;;;;11.35;10.15;;;16.20;89.70;;;;;;5072095;28;20036;-47
2023/09/28 05:44:18;;;;;;;10.98;9.98;;;16.20;89.60;;;;;;5076654;28;20040;-49
2023/09/28 05:46:44;;;;;;;12.93;10.07;;;16.10;89.70;;;;;;5075999;28;20606;-47
2023/09/28 05:49:14;;;;;;;11.63;10.43;;;16.10;89.80;;;;;;5075973;28;20033;-49
2023/09/28 05:51:41;;;;;;;11.38;10.38;;;16.10;89.80;;;;;;5076341;28;20125;-47
2023/09/28 05:54:08;;;;;;;10.65;9.48;;;16.10;89.90;;;;;;5075874;28;20029;-52
2023/09/28 05:56:35;;;;;;;11.45;10.35;;;16.10;90.00;;;;;;5075867;28;20024;-47
2023/09/28 05:59:05;;;;;;;13.57;10.07;;;16.10;90.10;;;;;;5057989;28;20024;-49
2023/09/28 06:01:32;;;;;;;12.20;10.85;;;16.00;90.10;;;;;;5075425;28;20028;-51
2023/09/28 06:03:57;;;;;;;12.57;10.55;;;16.10;90.10;;;;;;5075690;28;20024;-50
2023/09/28 06:06:27;;;;;;;13.73;10.18;;;16.10;90.30;;;;;;5075758;28;20035;-51
2023/09/28 06:08:54;;;;;;;10.65;9.60;;;16.10;90.30;;;;;;5075639;28;20024;-51
2023/09/28 06:11:21;;;;;;;12.88;10.27;;;16.10;90.30;;;;;;5076215;28;20110;-54
2023/09/28 06:13:47;;;;;;;10.82;9.70;;;16.10;90.40;;;;;;5075182;28;20039;-50
2023/09/28 06:16:15;;;;;;;12.13;10.50;;;16.10;90.40;;;;;;5075567;28;20024;-52
2023/09/28 06:18:46;;;;;;;11.25;10.05;;;16.10;90.50;;;;;;5075463;28;20029;-51
2023/09/28 06:21:17;;;;;;;11.02;10.00;;;16.20;90.50;;;;;;5075455;28;20444;-51
2023/09/28 06:23:42;;;;;;;12.15;10.98;;;16.20;90.50;;;;;;5095093;28;20040;-49
2023/09/28 06:26:09;;;;;;;10.77;9.68;;;16.20;90.40;;;;;;5094315;28;20031;-48
2023/09/28 06:28:36;;;;;;;11.57;10.43;;;16.20;90.40;;;;;;5077181;28;20056;-48
2023/09/28 06:31:04;;;;;;;13.85;11.05;;;16.20;90.50;;;;;;5074930;28;20095;-47
2023/09/28 06:33:31;;;;;;;14.95;10.48;;;16.30;90.40;;;;;;5074997;28;20094;-52
2023/09/28 06:35:57;;;;;;;10.77;9.70;;;16.30;90.50;;;;;;5074515;28;20475;-49
2023/09/28 06:38:22;;;;;;;12.82;10.02;;;16.30;90.50;;;;;;5074830;28;20037;-51
2023/09/28 06:40:51;;;;;;;11.82;10.63;;;16.40;90.50;;;;;;5077129;28;20032;-52
2023/09/28 06:43:20;;;;;;;14.37;10.50;;;16.40;90.50;;;;;;5094782;28;20117;-48
2023/09/28 06:45:47;;;;;;;11.52;9.75;;;16.40;90.60;;;;;;5094966;28;20369;-51
2023/09/28 06:48:14;;;;;;;10.32;9.30;;;16.40;90.60;;;;;;5094950;28;20021;-48
2023/09/28 06:50:40;;;;;;;14.55;10.45;;;16.50;90.60;;;;;;5075181;28;20082;-49
2023/09/28 06:53:07;;;;;;;9.93;8.93;;;16.50;90.70;;;;;;5073664;28;20063;-50
2023/09/28 06:55:35;;;;;;;14.55;9.65;;;16.60;90.80;;;;;;5074363;28;20086;-49
2023/09/28 06:58:06;;;;;;;10.15;8.52;;;16.70;90.70;;;;;;5073437;28;20036;-49
2023/09/28 07:00:32;;;;;;;11.32;9.48;;;16.80;90.70;;;;;;5074769;28;20028;-50
2023/09/28 07:02:59;;;;;;;10.95;9.48;;;16.90;90.50;;;;;;5073596;28;20039;-51
2023/09/28 07:05:29;;;;;;;11.52;9.77;;;16.90;90.40;;;;;;5074629;28;20073;-48
2023/09/28 07:07:58;;;;;;;13.35;9.40;;;17.00;90.40;;;;;;5074685;28;20357;-53
2023/09/28 07:10:27;;;;;;;11.95;8.52;;;17.10;90.10;;;;;;5075260;28;20028;-56
2023/09/28 07:12:53;;;;;;;10.02;7.63;;;17.20;89.70;;;;;;5074414;28;20035;-54
2023/09/28 07:15:22;;;;;;;12.27;9.45;;;17.20;89.50;;;;;;5075009;28;20358;-52
2023/09/28 07:17:51;;;;;;;9.93;8.02;;;17.40;89.10;;;;;;5074618;28;20036;-50
2023/09/28 07:20:20;;;;;;;9.45;7.70;;;17.40;88.80;;;;;;5074492;28;20373;-51
2023/09/28 07:22:48;;;;;;;10.77;8.45;;;17.50;88.20;;;;;;5074627;28;20024;-52
2023/09/28 07:25:14;;;;;;;9.00;7.70;;;17.60;87.90;;;;;;5074491;28;20024;-49
2023/09/28 07:27:45;;;;;;;11.55;7.63;;;17.60;87.80;;;;;;5056515;28;20086;-52
2023/09/28 07:30:15;;;;;;;12.55;7.07;;;17.70;87.60;;;;;;5074596;28;20365;-50
2023/09/28 07:32:42;;;;;;;15.23;6.97;;;17.70;87.50;;;;;;5073909;28;20119;-51
2023/09/28 07:35:11;;;;;;;10.57;6.32;;;17.80;87.30;;;;;;5056326;28;20017;-51
2023/09/28 07:37:43;;;;;;;8.40;6.18;;;17.90;87.10;;;;;;5073649;28;20402;-48
2023/09/28 07:40:12;;;;;;;13.35;6.75;;;18.00;87.00;;;;;;5073775;28;20433;-52
2023/09/28 07:42:44;;;;;;;11.50;7.17;;;18.20;86.30;;;;;;5073215;28;20040;-50
2023/09/28 07:45:13;;;;;;;11.40;6.22;;;18.40;85.80;;;;;;5053571;28;20463;-51
2023/09/28 07:47:41;;;;;;;9.57;6.03;;;18.50;84.90;;;;;;5073304;28;20085;-53
2023/09/28 07:50:14;;;;;;;10.88;5.72;;;18.70;84.30;;;;;;5073788;28;20350;-53
2023/09/28 07:52:44;;;;;;;9.23;5.60;;;18.80;83.80;;;;;;5072253;28;20445;-49
2023/09/28 07:55:13;;;;;;;11.82;6.53;;;18.90;83.50;;;;;;5091200;28;20034;-53
2023/09/28 07:57:47;;;;;;;13.40;6.13;;;19.00;83.60;;;;;;5073353;28;20016;-49
2023/09/28 08:00:17;;;;;;;16.52;5.22;;;19.30;83.30;;;;;;5073498;28;20032;-48
2023/09/28 08:02:45;;;;;;;18.17;6.00;;;19.30;81.70;;;;;;5072966;28;20036;-52
2023/09/28 08:05:12;;;;;;;9.48;4.60;;;19.40;81.00;;;;;;5073589;28;20099;-51
2023/09/28 08:07:40;;;;;;;12.57;4.90;;;19.50;81.50;;;;;;5072704;28;20059;-55
2023/09/28 08:10:09;;;;;;;13.73;4.82;;;19.70;81.40;;;;;;5073294;28;20526;-51
2023/09/28 08:12:46;;;;;;;11.10;5.75;;;19.90;80.70;;;;;;5056108;28;20033;-53
2023/09/28 08:15:24;;;;;;;13.32;6.63;;;19.90;80.30;;;;;;5073874;28;20108;-49
2023/09/28 08:17:49;;;;;;;11.52;4.75;;;19.90;80.50;;;;;;5059705;28;20182;-51
2023/09/28 08:20:20;;;;;;;13.63;5.15;;;19.90;80.00;;;;;;5093242;28;20028;-50
2023/09/28 08:22:49;;;;;;;16.98;6.00;;;20.00;79.80;;;;;;5079998;28;20024;-50
2023/09/28 08:25:15;;;;;;;12.30;5.57;;;20.10;80.10;;;;;;5072979;28;20060;-53
2023/09/28 08:27:43;;;;;;;12.85;5.22;;;20.30;79.70;;;;;;5073160;28;20073;-48
2023/09/28 08:30:10;;;;;;;15.90;5.78;;;20.40;79.20;;;;;;5072674;28;20027;-54
2023/09/28 08:32:39;;;;;;;10.98;4.68;;;20.60;78.60;;;;;;5072824;28;20029;-54
2023/09/28 08:35:10;;;;;;;18.05;5.93;;;20.50;77.20;;;;;;5072076;28;20024;-49
2023/09/28 08:37:37;;;;;;;16.25;4.85;;;20.60;77.50;;;;;;5072059;28;20351;-51
2023/09/28 08:40:05;;;;;;;10.60;4.40;;;20.60;76.80;;;;;;5072802;28;20039;-53
2023/09/28 08:42:37;;;;;;;12.35;4.88;;;20.60;77.30;;;;;;5072428;28;20048;-55
2023/09/28 08:45:05;;;;;;;14.73;5.05;;;20.80;77.30;;;;;;5072816;28;20032;-50
2023/09/28 08:47:35;;;;;;;13.27;4.78;;;20.70;77.10;;;;;;5073331;28;20017;-50
2023/09/28 08:50:05;;;;;;;18.08;4.85;;;20.80;76.50;;;;;;5055577;28;20446;-53
2023/09/28 08:52:30;;;;;;;16.40;4.80;;;20.90;75.20;;;;;;5072908;28;20029;-54
2023/09/28 08:54:58;;;;;;;18.27;5.38;;;20.80;75.30;;;;;;5068764;28;20177;-49
2023/09/28 08:57:27;;;;;;;16.02;5.55;;;20.80;74.50;;;;;;5074958;28;20084;-54
2023/09/28 09:00:13;;;;;;;16.20;4.30;;;20.60;76.00;;;;;;5091535;28;20031;-51
2023/09/28 09:02:43;;;;;;;14.65;5.07;;;20.90;76.30;;;;;;5072586;28;20043;-54
2023/09/28 09:05:13;;;;;;;15.75;4.95;;;21.20;75.60;;;;;;5071961;28;20378;-54
2023/09/28 09:07:43;;;;;;;14.35;4.60;;;21.30;73.20;;;;;;5071896;28;20037;-51
2023/09/28 09:10:12;;;;;;;15.45;4.97;;;21.40;73.90;;;;;;5055153;28;20069;-51
2023/09/28 09:12:39;;;;;;;14.30;3.78;;;21.00;73.60;;;;;;5054904;28;20029;-52
2023/09/28 09:15:13;;;;;;;16.20;4.50;;;21.00;74.20;;;;;;5056502;28;20033;-51
2023/09/28 09:17:44;;;;;;;18.67;5.18;;;21.00;74.60;;;;;;5073666;28;20130;-52
2023/09/28 09:20:10;;;;;;;23.00;5.47;;;21.10;74.50;;;;;;5077030;28;20442;-54
2023/09/28 09:22:38;;;;;;;15.38;4.90;;;21.10;73.20;;;;;;5076559;28;20032;-53
2023/09/28 09:25:05;;;;;;;18.00;4.78;;;21.40;73.40;;;;;;5076546;28;20042;-54
2023/09/28 09:27:32;;;;;;;18.20;5.18;;;21.20;73.10;;;;;;5077394;28;20024;-54
2023/09/28 09:30:17;;;;;;;12.55;4.28;;;21.20;72.20;;;;;;5058928;28;20039;-51
2023/09/28 09:32:47;;;;;;;17.50;4.72;;;21.50;72.40;;;;;;5076331;28;20035;-53
2023/09/28 09:35:13;;;;;;;16.85;5.55;;;21.40;72.60;;;;;;5058617;28;20025;-53
2023/09/28 09:37:56;;;;;;;14.68;4.55;;;21.50;72.40;;;;;;5058621;28;20031;-53
2023/09/28 09:40:25;;;;;;;15.07;5.07;;;21.70;72.90;;;;;;5058884;28;20040;-53
2023/09/28 09:42:56;;;;;;;14.75;4.13;;;21.50;71.10;;;;;;5076216;28;20047;-51
2023/09/28 09:45:23;;;;;;;14.60;4.32;;;21.50;72.00;;;;;;5076019;28;20024;-51
2023/09/28 09:47:52;;;;;;;12.57;4.35;;;21.40;73.00;;;;;;5076585;28;20028;-53
2023/09/28 09:50:24;;;;;;;15.57;4.35;;;21.10;72.00;;;;;;5076017;28;20024;-52
2023/09/28 09:53:04;;;;;;;15.52;5.03;;;21.00;74.20;;;;;;5058388;28;20035;-50
2023/09/28 09:55:35;;;;;;;20.80;5.75;;;21.00;73.10;;;;;;5058559;28;20037;-54
2023/09/28 09:58:04;;;;;;;12.20;4.28;;;21.20;72.40;;;;;;5075761;28;20025;-53
2023/09/28 10:00:37;;;;;;;17.42;4.63;;;21.60;72.70;;;;;;5074537;28;20333;-50
2023/09/28 10:03:05;;;;;;;13.23;4.53;;;21.40;71.70;;;;;;5058215;28;20037;-50
2023/09/28 10:05:34;;;;;;;12.23;4.57;;;21.40;70.90;;;;;;5076220;28;20037;-54
2023/09/28 10:08:04;;;;;;;17.60;5.50;;;21.50;71.80;;;;;;5057751;28;20500;-50
2023/09/28 10:10:33;;;;;;;13.80;3.83;;;21.40;70.60;;;;;;5058638;28;20626;-48
2023/09/28 10:13:15;;;;;;;14.10;3.87;;;21.30;71.20;;;;;;5076052;28;20037;-48
2023/09/28 10:15:49;;;;;;;13.15;3.92;;;21.00;71.30;;;;;;5075592;28;20678;-51
2023/09/28 10:18:20;;;;;;;15.63;4.00;;;21.10;72.80;;;;;;5057807;28;20056;-48
2023/09/28 10:20:48;;;;;;;15.02;5.28;;;21.10;72.30;;;;;;5057749;28;20414;-51
2023/09/28 10:23:23;;;;;;;14.55;4.43;;;20.90;72.00;;;;;;5074493;28;20036;-52
2023/09/28 10:26:10;;;;;;;15.85;5.03;;;20.80;72.70;;;;;;5072695;28;20044;-54
2023/09/28 10:29:07;;;;;;;13.85;4.45;;;20.70;73.30;;;;;;5074282;28;20032;-53
2023/09/28 10:31:53;;;;;;;14.90;4.45;;;20.50;74.40;;;;;;5057290;28;20032;-54
2023/09/28 10:34:22;;;;;;;13.98;4.25;;;20.30;74.70;;;;;;5075294;28;20029;-49
2023/09/28 10:37:18;;;;;;;19.43;5.30;;;20.10;75.30;;;;;;5075246;28;20465;-51
2023/09/28 10:40:06;;;;;;;26.13;5.82;;;20.00;75.60;;;;;;5069250;28;20128;-48
2023/09/28 10:42:35;;;;;;;13.98;4.72;;;20.00;76.50;;;;;;5074625;28;20396;-53
2023/09/28 10:45:07;;;;;;;;;;;20.20;77.60;;;;;;5075326;28;20036;-52
2023/09/28 10:47:35;;;;;;;14.57;4.85;;;20.20;75.90;;;;;;5057884;28;19912;-49
2023/09/28 10:50:08;;;;;;;16.40;4.00;;;20.10;75.70;;;;;;5074923;28;20032;-48
2023/09/28 10:52:36;;;;;;;20.48;5.72;;;20.00;75.40;;;;;;5073737;28;20028;-51
2023/09/28 10:55:02;;;;;;;13.57;4.68;;;19.90;75.80;;;;;;5074493;28;20474;-48
2023/09/28 10:57:31;;;;;;;14.38;4.40;;;19.90;75.60;;;;;;5074840;28;20154;-53
2023/09/28 10:59:59;;;;;;;17.52;5.35;;;19.90;75.90;;;;;;5057174;28;20032;-51
2023/09/28 11:02:28;;;;;;;20.65;5.05;;;19.90;76.40;;;;;;5056927;28;20036;-48
2023/09/28 11:04:56;;;;;;;17.33;5.65;;;20.10;75.90;;;;;;5073400;28;20070;-48
2023/09/28 11:07:23;;;;;;;20.98;5.97;;;20.00;76.10;;;;;;5057115;28;20047;-48
2023/09/28 11:09:53;;;;;;;16.02;4.30;;;20.10;75.40;;;;;;5075072;28;20446;-53
2023/09/28 11:12:19;;;;;;;13.02;3.92;;;20.20;75.60;;;;;;5057050;28;20025;-51
2023/09/28 11:14:47;;;;;;;17.52;5.45;;;20.20;75.80;;;;;;5074365;28;20032;-53
2023/09/28 11:17:14;;;;;;;18.58;5.03;;;20.20;74.70;;;;;;5074708;28;20089;-50
2023/09/28 11:19:41;;;;;;;14.02;4.50;;;20.30;74.80;;;;;;5074301;28;20040;-50
2023/09/28 11:22:14;;;;;;;13.45;4.72;;;20.50;74.60;;;;;;5074456;28;20082;-51
2023/09/28 11:24:40;;;;;;;22.08;5.47;;;20.80;72.70;;;;;;5074072;28;20040;-51
2023/09/28 11:27:06;;;;;;;12.38;3.53;;;21.00;73.80;;;;;;5074482;28;20021;-51
2023/09/28 11:29:34;;;;;;;15.30;3.78;;;21.20;70.50;;;;;;5056298;28;20468;-51
2023/09/28 11:32:06;;;;;;;16.33;4.80;;;21.20;69.40;;;;;;5073882;28;20390;-51
2023/09/28 11:34:37;;;;;;;14.63;5.03;;;21.30;69.10;;;;;;5073874;28;20047;-54
2023/09/28 11:37:09;;;;;;;13.27;4.03;;;21.40;69.00;;;;;;5073551;28;20208;-54
2023/09/28 11:39:38;;;;;;;19.48;5.18;;;21.50;68.40;;;;;;5074530;28;20086;-50
2023/09/28 11:42:07;;;;;;;14.00;3.75;;;21.70;68.40;;;;;;5052512;28;20135;-50
2023/09/28 11:44:34;;;;;;;14.35;3.75;;;21.70;67.00;;;;;;5053887;28;20061;-52
2023/09/28 11:47:08;;;;;;;13.90;4.55;;;21.60;68.10;;;;;;5053368;28;20063;-51
2023/09/28 11:49:40;;;;;;;15.77;4.20;;;21.60;66.90;;;;;;5069095;28;20446;-48
2023/09/28 11:52:10;;;;;;;23.98;5.55;;;21.50;68.60;;;;;;5066660;28;20120;-49
2023/09/28 11:54:38;;;;;;;16.52;4.60;;;21.50;69.20;;;;;;5052613;28;20335;-49
2023/09/28 11:57:07;;;;;;;14.35;5.30;;;21.40;68.80;;;;;;5052685;28;20377;-51
2023/09/28 11:59:33;;;;;;;13.30;4.57;;;21.50;69.70;;;;;;5068341;28;20064;-51
2023/09/28 12:02:01;;;;;;;13.88;4.40;;;21.40;69.00;;;;;;5053044;28;20064;-53
2023/09/28 12:04:28;;;;;;;19.58;5.55;;;21.40;69.90;;;;;;5053100;28;20098;-51
2023/09/28 12:06:59;;;;;;;16.98;4.47;;;21.40;70.10;;;;;;5053398;28;20029;-50
2023/09/28 12:09:26;;;;;;;15.00;4.28;;;21.40;70.30;;;;;;5056196;28;20068;-53
2023/09/28 12:11:53;;;;;;;18.70;5.30;;;21.50;70.80;;;;;;5052898;28;20025;-55
2023/09/28 12:14:20;;;;;;;15.77;4.53;;;21.40;69.80;;;;;;5053282;28;20107;-51
2023/09/28 12:16:50;;;;;;;20.45;5.18;;;21.20;70.00;;;;;;5053601;28;20096;-51
2023/09/28 12:19:18;;;;;;;15.55;4.82;;;21.20;70.80;;;;;;5053948;28;20132;-49
2023/09/28 12:21:46;;;;;;;14.32;4.65;;;21.20;70.60;;;;;;5052314;28;20343;-52
2023/09/28 12:24:18;;;;;;;12.68;4.07;;;21.20;70.50;;;;;;5052619;28;20530;-51
2023/09/28 12:26:48;;;;;;;17.20;5.50;;;21.00;70.50;;;;;;5042644;28;20025;-50
2023/09/28 12:29:13;;;;;;;11.43;4.03;;;21.00;71.60;;;;;;5052649;28;20087;-50
2023/09/28 12:31:41;;;;;;;17.40;4.30;;;21.10;70.80;;;;;;5051701;28;20024;-50
2023/09/28 12:34:06;;;;;;;19.75;6.15;;;21.10;70.80;;;;;;5052335;28;20358;-49
2023/09/28 12:36:35;;;;;;;17.13;4.82;;;20.90;71.80;;;;;;5052154;28;20033;-52
2023/09/28 12:39:01;;;;;;;18.55;4.32;;;20.90;72.10;;;;;;5052174;28;20031;-52
2023/09/28 12:41:30;;;;;;;17.77;4.78;;;20.90;72.30;;;;;;5056144;28;20040;-52
2023/09/28 12:43:57;;;;;;;17.70;4.60;;;21.00;72.80;;;;;;5091202;28;20096;-51